sensor_id;sensor_type;location;lat;lon;timestamp;P1;durP1;ratioP1;P2;durP2;ratioP2
13439;SDS011;6792;57.698;11.946;2023-04-15T00:02:04;11.23;;;5.97;;
13439;SDS011;6792;57.698;11.946;2023-04-15T00:04:41;6.33;;;4.77;;
13439;SDS011;6792;57.698;11.946;2023-04-15T00:07:10;8.57;;;5.83;;
13439;SDS011;6792;57.698;11.946;2023-04-15T00:09:41;7.27;;;4.90;;
13439;SDS011;6792;57.698;11.946;2023-04-15T00:12:11;6.43;;;5.13;;
13439;SDS011;6792;57.698;11.946;2023-04-15T00:14:40;4.80;;;4.17;;
13439;SDS011;6792;57.698;11.946;2023-04-15T00:17:10;8.53;;;5.00;;
13439;SDS011;6792;57.698;11.946;2023-04-15T00:19:40;8.37;;;5.80;;
13439;SDS011;6792;57.698;11.946;2023-04-15T00:22:15;7.83;;;5.00;;
13439;SDS011;6792;57.698;11.946;2023-04-15T00:24:49;7.73;;;5.10;;
13439;SDS011;6792;57.698;11.946;2023-04-15T00:27:29;7.40;;;4.87;;
13439;SDS011;6792;57.698;11.946;2023-04-15T00:29:58;7.13;;;4.80;;
13439;SDS011;6792;57.698;11.946;2023-04-15T00:32:27;8.33;;;5.50;;
13439;SDS011;6792;57.698;11.946;2023-04-15T00:34:57;8.73;;;4.77;;
13439;SDS011;6792;57.698;11.946;2023-04-15T00:37:26;8.73;;;4.83;;
13439;SDS011;6792;57.698;11.946;2023-04-15T00:39:55;8.77;;;6.10;;
13439;SDS011;6792;57.698;11.946;2023-04-15T00:42:25;7.67;;;4.87;;
13439;SDS011;6792;57.698;11.946;2023-04-15T00:44:55;8.33;;;5.03;;
13439;SDS011;6792;57.698;11.946;2023-04-15T00:47:27;7.23;;;5.37;;
13439;SDS011;6792;57.698;11.946;2023-04-15T00:49:58;8.37;;;5.67;;
13439;SDS011;6792;57.698;11.946;2023-04-15T00:52:29;8.63;;;5.60;;
13439;SDS011;6792;57.698;11.946;2023-04-15T00:55:00;7.00;;;5.27;;
13439;SDS011;6792;57.698;11.946;2023-04-15T00:57:30;8.97;;;5.57;;
13439;SDS011;6792;57.698;11.946;2023-04-15T01:00:02;6.43;;;4.43;;
13439;SDS011;6792;57.698;11.946;2023-04-15T01:02:35;7.10;;;5.10;;
13439;SDS011;6792;57.698;11.946;2023-04-15T01:05:05;6.83;;;5.53;;
13439;SDS011;6792;57.698;11.946;2023-04-15T01:07:35;9.17;;;4.63;;
13439;SDS011;6792;57.698;11.946;2023-04-15T01:10:05;6.17;;;4.40;;
13439;SDS011;6792;57.698;11.946;2023-04-15T01:12:36;6.00;;;4.50;;
13439;SDS011;6792;57.698;11.946;2023-04-15T01:15:07;7.57;;;4.63;;
13439;SDS011;6792;57.698;11.946;2023-04-15T01:17:37;6.30;;;4.23;;
13439;SDS011;6792;57.698;11.946;2023-04-15T01:20:11;8.17;;;5.50;;
13439;SDS011;6792;57.698;11.946;2023-04-15T01:22:42;6.50;;;4.40;;
13439;SDS011;6792;57.698;11.946;2023-04-15T01:25:13;6.80;;;4.63;;
13439;SDS011;6792;57.698;11.946;2023-04-15T01:31:04;6.27;;;4.73;;
13439;SDS011;6792;57.698;11.946;2023-04-15T01:33:34;6.10;;;4.40;;
13439;SDS011;6792;57.698;11.946;2023-04-15T01:36:07;7.43;;;4.87;;
13439;SDS011;6792;57.698;11.946;2023-04-15T01:38:37;7.90;;;5.90;;
13439;SDS011;6792;57.698;11.946;2023-04-15T01:41:06;5.53;;;3.90;;
13439;SDS011;6792;57.698;11.946;2023-04-15T01:43:35;8.97;;;5.17;;
13439;SDS011;6792;57.698;11.946;2023-04-15T01:46:05;7.50;;;4.67;;
13439;SDS011;6792;57.698;11.946;2023-04-15T01:48:34;8.63;;;5.20;;
13439;SDS011;6792;57.698;11.946;2023-04-15T01:51:03;6.80;;;4.20;;
13439;SDS011;6792;57.698;11.946;2023-04-15T01:53:33;7.40;;;5.10;;
13439;SDS011;6792;57.698;11.946;2023-04-15T01:56:05;7.97;;;4.47;;
13439;SDS011;6792;57.698;11.946;2023-04-15T01:58:36;7.20;;;4.90;;
13439;SDS011;6792;57.698;11.946;2023-04-15T02:01:06;7.07;;;4.73;;
13439;SDS011;6792;57.698;11.946;2023-04-15T02:03:37;8.93;;;4.80;;
13439;SDS011;6792;57.698;11.946;2023-04-15T02:06:06;6.83;;;4.20;;
13439;SDS011;6792;57.698;11.946;2023-04-15T02:08:36;7.57;;;4.63;;
13439;SDS011;6792;57.698;11.946;2023-04-15T02:11:05;5.73;;;4.20;;
13439;SDS011;6792;57.698;11.946;2023-04-15T02:13:34;4.53;;;4.07;;
13439;SDS011;6792;57.698;11.946;2023-04-15T02:16:04;7.40;;;4.97;;
13439;SDS011;6792;57.698;11.946;2023-04-15T02:18:52;6.03;;;4.30;;
13439;SDS011;6792;57.698;11.946;2023-04-15T02:21:44;7.50;;;4.80;;
13439;SDS011;6792;57.698;11.946;2023-04-15T02:24:19;6.93;;;4.20;;
13439;SDS011;6792;57.698;11.946;2023-04-15T02:26:48;6.20;;;4.23;;
13439;SDS011;6792;57.698;11.946;2023-04-15T02:29:17;7.00;;;4.83;;
13439;SDS011;6792;57.698;11.946;2023-04-15T02:31:48;6.90;;;4.60;;
13439;SDS011;6792;57.698;11.946;2023-04-15T02:34:18;6.67;;;4.60;;
13439;SDS011;6792;57.698;11.946;2023-04-15T02:36:47;5.63;;;4.23;;
13439;SDS011;6792;57.698;11.946;2023-04-15T02:39:18;7.10;;;5.07;;
13439;SDS011;6792;57.698;11.946;2023-04-15T02:41:47;8.93;;;4.27;;
13439;SDS011;6792;57.698;11.946;2023-04-15T02:44:17;5.83;;;3.80;;
13439;SDS011;6792;57.698;11.946;2023-04-15T02:46:50;9.43;;;4.03;;
13439;SDS011;6792;57.698;11.946;2023-04-15T02:49:20;7.47;;;4.50;;
13439;SDS011;6792;57.698;11.946;2023-04-15T02:51:49;5.83;;;4.47;;
13439;SDS011;6792;57.698;11.946;2023-04-15T02:54:19;5.77;;;4.80;;
13439;SDS011;6792;57.698;11.946;2023-04-15T02:56:48;6.67;;;4.93;;
13439;SDS011;6792;57.698;11.946;2023-04-15T02:59:20;5.83;;;4.53;;
13439;SDS011;6792;57.698;11.946;2023-04-15T03:01:49;7.27;;;4.73;;
13439;SDS011;6792;57.698;11.946;2023-04-15T03:04:18;5.83;;;4.33;;
13439;SDS011;6792;57.698;11.946;2023-04-15T03:06:48;8.33;;;5.23;;
13439;SDS011;6792;57.698;11.946;2023-04-15T03:09:20;7.17;;;5.37;;
13439;SDS011;6792;57.698;11.946;2023-04-15T03:11:52;7.50;;;5.23;;
13439;SDS011;6792;57.698;11.946;2023-04-15T03:14:22;6.03;;;4.63;;
13439;SDS011;6792;57.698;11.946;2023-04-15T03:16:52;6.73;;;4.50;;
13439;SDS011;6792;57.698;11.946;2023-04-15T03:19:22;4.83;;;4.23;;
13439;SDS011;6792;57.698;11.946;2023-04-15T03:21:51;6.97;;;5.40;;
13439;SDS011;6792;57.698;11.946;2023-04-15T03:24:20;8.23;;;4.47;;
13439;SDS011;6792;57.698;11.946;2023-04-15T03:26:50;8.20;;;5.67;;
13439;SDS011;6792;57.698;11.946;2023-04-15T03:29:20;7.33;;;5.00;;
13439;SDS011;6792;57.698;11.946;2023-04-15T03:31:50;7.17;;;4.87;;
13439;SDS011;6792;57.698;11.946;2023-04-15T03:34:21;6.90;;;4.83;;
13439;SDS011;6792;57.698;11.946;2023-04-15T03:36:50;7.30;;;5.57;;
13439;SDS011;6792;57.698;11.946;2023-04-15T03:39:21;7.33;;;4.63;;
13439;SDS011;6792;57.698;11.946;2023-04-15T03:41:52;8.10;;;5.90;;
13439;SDS011;6792;57.698;11.946;2023-04-15T03:44:21;6.73;;;4.90;;
13439;SDS011;6792;57.698;11.946;2023-04-15T03:46:51;7.03;;;4.77;;
13439;SDS011;6792;57.698;11.946;2023-04-15T03:49:20;5.53;;;4.50;;
13439;SDS011;6792;57.698;11.946;2023-04-15T03:51:50;6.50;;;4.73;;
13439;SDS011;6792;57.698;11.946;2023-04-15T03:54:19;5.63;;;4.80;;
13439;SDS011;6792;57.698;11.946;2023-04-15T03:56:48;6.30;;;5.03;;
13439;SDS011;6792;57.698;11.946;2023-04-15T03:59:17;8.73;;;5.80;;
13439;SDS011;6792;57.698;11.946;2023-04-15T04:01:48;7.33;;;5.20;;
13439;SDS011;6792;57.698;11.946;2023-04-15T04:04:19;8.27;;;5.80;;
13439;SDS011;6792;57.698;11.946;2023-04-15T04:06:48;7.20;;;5.00;;
13439;SDS011;6792;57.698;11.946;2023-04-15T04:09:18;7.17;;;5.40;;
13439;SDS011;6792;57.698;11.946;2023-04-15T04:11:49;7.60;;;4.93;;
13439;SDS011;6792;57.698;11.946;2023-04-15T04:14:19;7.90;;;5.40;;
13439;SDS011;6792;57.698;11.946;2023-04-15T04:16:51;7.57;;;4.57;;
13439;SDS011;6792;57.698;11.946;2023-04-15T04:19:22;10.60;;;5.90;;
13439;SDS011;6792;57.698;11.946;2023-04-15T04:21:51;8.77;;;5.13;;
13439;SDS011;6792;57.698;11.946;2023-04-15T04:24:23;8.47;;;5.83;;
13439;SDS011;6792;57.698;11.946;2023-04-15T04:26:52;7.40;;;4.47;;
13439;SDS011;6792;57.698;11.946;2023-04-15T04:29:23;8.07;;;5.53;;
13439;SDS011;6792;57.698;11.946;2023-04-15T04:31:54;8.70;;;5.03;;
13439;SDS011;6792;57.698;11.946;2023-04-15T04:34:26;7.20;;;5.10;;
13439;SDS011;6792;57.698;11.946;2023-04-15T04:36:55;9.73;;;5.07;;
13439;SDS011;6792;57.698;11.946;2023-04-15T04:39:25;8.83;;;5.57;;
13439;SDS011;6792;57.698;11.946;2023-04-15T04:41:54;8.57;;;4.70;;
13439;SDS011;6792;57.698;11.946;2023-04-15T04:44:23;7.57;;;5.63;;
13439;SDS011;6792;57.698;11.946;2023-04-15T04:46:53;7.03;;;4.70;;
13439;SDS011;6792;57.698;11.946;2023-04-15T04:49:22;13.57;;;5.80;;
13439;SDS011;6792;57.698;11.946;2023-04-15T04:51:51;9.23;;;4.97;;
13439;SDS011;6792;57.698;11.946;2023-04-15T04:54:23;7.13;;;5.40;;
13439;SDS011;6792;57.698;11.946;2023-04-15T04:56:54;8.13;;;4.77;;
13439;SDS011;6792;57.698;11.946;2023-04-15T04:59:24;9.87;;;5.63;;
13439;SDS011;6792;57.698;11.946;2023-04-15T05:01:55;6.30;;;4.63;;
13439;SDS011;6792;57.698;11.946;2023-04-15T05:04:24;10.50;;;5.10;;
13439;SDS011;6792;57.698;11.946;2023-04-15T05:06:53;6.50;;;4.43;;
13439;SDS011;6792;57.698;11.946;2023-04-15T05:09:23;10.67;;;5.87;;
13439;SDS011;6792;57.698;11.946;2023-04-15T05:11:52;8.33;;;4.63;;
13439;SDS011;6792;57.698;11.946;2023-04-15T05:14:21;9.63;;;5.90;;
13439;SDS011;6792;57.698;11.946;2023-04-15T05:16:50;8.37;;;4.87;;
13439;SDS011;6792;57.698;11.946;2023-04-15T05:19:22;11.37;;;5.93;;
13439;SDS011;6792;57.698;11.946;2023-04-15T05:21:51;10.17;;;4.97;;
13439;SDS011;6792;57.698;11.946;2023-04-15T05:24:23;10.73;;;5.00;;
13439;SDS011;6792;57.698;11.946;2023-04-15T05:26:52;8.13;;;5.17;;
13439;SDS011;6792;57.698;11.946;2023-04-15T05:29:22;8.03;;;5.57;;
13439;SDS011;6792;57.698;11.946;2023-04-15T05:31:52;11.33;;;4.97;;
13439;SDS011;6792;57.698;11.946;2023-04-15T05:34:22;8.67;;;5.47;;
13439;SDS011;6792;57.698;11.946;2023-04-15T05:36:51;8.87;;;4.80;;
13439;SDS011;6792;57.698;11.946;2023-04-15T05:39:24;10.43;;;5.47;;
13439;SDS011;6792;57.698;11.946;2023-04-15T05:41:54;8.20;;;4.67;;
13439;SDS011;6792;57.698;11.946;2023-04-15T05:44:23;7.27;;;5.80;;
13439;SDS011;6792;57.698;11.946;2023-04-15T05:46:55;10.00;;;4.87;;
13439;SDS011;6792;57.698;11.946;2023-04-15T05:49:24;10.30;;;5.60;;
13439;SDS011;6792;57.698;11.946;2023-04-15T05:51:57;9.80;;;4.93;;
13439;SDS011;6792;57.698;11.946;2023-04-15T05:54:27;10.70;;;5.70;;
13439;SDS011;6792;57.698;11.946;2023-04-15T05:56:56;7.83;;;5.10;;
13439;SDS011;6792;57.698;11.946;2023-04-15T06:02:36;10.33;;;5.80;;
13439;SDS011;6792;57.698;11.946;2023-04-15T06:05:08;7.47;;;5.50;;
13439;SDS011;6792;57.698;11.946;2023-04-15T06:07:48;10.23;;;5.97;;
13439;SDS011;6792;57.698;11.946;2023-04-15T06:10:18;9.90;;;5.40;;
13439;SDS011;6792;57.698;11.946;2023-04-15T06:12:49;10.93;;;6.00;;
13439;SDS011;6792;57.698;11.946;2023-04-15T06:15:20;7.07;;;5.10;;
13439;SDS011;6792;57.698;11.946;2023-04-15T06:17:51;9.23;;;6.00;;
13439;SDS011;6792;57.698;11.946;2023-04-15T06:20:20;8.73;;;5.70;;
13439;SDS011;6792;57.698;11.946;2023-04-15T06:22:50;9.87;;;6.27;;
13439;SDS011;6792;57.698;11.946;2023-04-15T06:25:22;10.57;;;5.10;;
13439;SDS011;6792;57.698;11.946;2023-04-15T06:27:52;11.27;;;6.10;;
13439;SDS011;6792;57.698;11.946;2023-04-15T06:30:23;10.43;;;4.93;;
13439;SDS011;6792;57.698;11.946;2023-04-15T06:32:52;14.33;;;6.30;;
13439;SDS011;6792;57.698;11.946;2023-04-15T06:35:22;9.83;;;5.13;;
13439;SDS011;6792;57.698;11.946;2023-04-15T06:37:53;14.80;;;6.77;;
13439;SDS011;6792;57.698;11.946;2023-04-15T06:40:22;9.90;;;5.87;;
13439;SDS011;6792;57.698;11.946;2023-04-15T06:42:52;8.83;;;5.93;;
13439;SDS011;6792;57.698;11.946;2023-04-15T06:45:22;10.73;;;5.37;;
13439;SDS011;6792;57.698;11.946;2023-04-15T06:47:52;12.80;;;6.10;;
13439;SDS011;6792;57.698;11.946;2023-04-15T06:50:23;9.20;;;5.00;;
13439;SDS011;6792;57.698;11.946;2023-04-15T06:52:58;13.50;;;6.40;;
13439;SDS011;6792;57.698;11.946;2023-04-15T06:55:30;8.50;;;5.10;;
13439;SDS011;6792;57.698;11.946;2023-04-15T06:58:01;12.57;;;5.73;;
13439;SDS011;6792;57.698;11.946;2023-04-15T07:00:30;9.37;;;5.10;;
13439;SDS011;6792;57.698;11.946;2023-04-15T07:02:59;13.03;;;6.20;;
13439;SDS011;6792;57.698;11.946;2023-04-15T07:05:29;8.97;;;5.40;;
13439;SDS011;6792;57.698;11.946;2023-04-15T07:08:02;10.57;;;6.87;;
13439;SDS011;6792;57.698;11.946;2023-04-15T07:10:32;10.63;;;5.67;;
13439;SDS011;6792;57.698;11.946;2023-04-15T07:13:01;10.90;;;6.33;;
13439;SDS011;6792;57.698;11.946;2023-04-15T07:15:34;10.27;;;5.70;;
13439;SDS011;6792;57.698;11.946;2023-04-15T07:18:04;14.83;;;6.60;;
13439;SDS011;6792;57.698;11.946;2023-04-15T07:20:33;11.07;;;6.17;;
13439;SDS011;6792;57.698;11.946;2023-04-15T07:23:05;10.40;;;6.47;;
13439;SDS011;6792;57.698;11.946;2023-04-15T07:25:34;12.07;;;5.77;;
13439;SDS011;6792;57.698;11.946;2023-04-15T07:28:04;16.73;;;6.90;;
13439;SDS011;6792;57.698;11.946;2023-04-15T07:30:33;9.97;;;5.60;;
13439;SDS011;6792;57.698;11.946;2023-04-15T07:33:02;8.40;;;5.60;;
13439;SDS011;6792;57.698;11.946;2023-04-15T07:35:31;7.73;;;5.63;;
13439;SDS011;6792;57.698;11.946;2023-04-15T07:38:00;14.13;;;6.23;;
13439;SDS011;6792;57.698;11.946;2023-04-15T07:40:30;9.20;;;5.97;;
13439;SDS011;6792;57.698;11.946;2023-04-15T07:42:59;12.07;;;7.00;;
13439;SDS011;6792;57.698;11.946;2023-04-15T07:45:29;8.97;;;5.17;;
13439;SDS011;6792;57.698;11.946;2023-04-15T07:47:58;11.83;;;6.27;;
13439;SDS011;6792;57.698;11.946;2023-04-15T07:50:31;12.07;;;5.83;;
13439;SDS011;6792;57.698;11.946;2023-04-15T07:53:00;11.10;;;5.97;;
13439;SDS011;6792;57.698;11.946;2023-04-15T07:55:31;9.17;;;5.33;;
13439;SDS011;6792;57.698;11.946;2023-04-15T07:58:00;9.57;;;6.10;;
13439;SDS011;6792;57.698;11.946;2023-04-15T08:00:30;10.37;;;5.13;;
13439;SDS011;6792;57.698;11.946;2023-04-15T08:02:59;7.93;;;4.93;;
13439;SDS011;6792;57.698;11.946;2023-04-15T08:05:30;12.50;;;6.80;;
13439;SDS011;6792;57.698;11.946;2023-04-15T08:07:59;8.20;;;5.10;;
13439;SDS011;6792;57.698;11.946;2023-04-15T08:10:29;8.23;;;5.10;;
13439;SDS011;6792;57.698;11.946;2023-04-15T08:12:58;9.47;;;6.17;;
13439;SDS011;6792;57.698;11.946;2023-04-15T08:15:27;15.17;;;6.17;;
13439;SDS011;6792;57.698;11.946;2023-04-15T08:17:58;8.27;;;5.67;;
13439;SDS011;6792;57.698;11.946;2023-04-15T08:20:27;13.70;;;5.80;;
13439;SDS011;6792;57.698;11.946;2023-04-15T08:22:56;9.23;;;5.20;;
13439;SDS011;6792;57.698;11.946;2023-04-15T08:25:25;10.80;;;6.83;;
13439;SDS011;6792;57.698;11.946;2023-04-15T08:27:55;11.67;;;6.33;;
13439;SDS011;6792;57.698;11.946;2023-04-15T08:30:25;12.10;;;6.93;;
13439;SDS011;6792;57.698;11.946;2023-04-15T08:32:54;10.27;;;5.70;;
13439;SDS011;6792;57.698;11.946;2023-04-15T08:35:23;12.30;;;6.40;;
13439;SDS011;6792;57.698;11.946;2023-04-15T08:37:55;7.70;;;5.20;;
13439;SDS011;6792;57.698;11.946;2023-04-15T08:40:27;6.53;;;4.70;;
13439;SDS011;6792;57.698;11.946;2023-04-15T08:42:59;9.83;;;6.70;;
13439;SDS011;6792;57.698;11.946;2023-04-15T08:45:31;10.30;;;5.17;;
13439;SDS011;6792;57.698;11.946;2023-04-15T08:48:01;9.53;;;5.53;;
13439;SDS011;6792;57.698;11.946;2023-04-15T08:50:33;7.30;;;5.10;;
13439;SDS011;6792;57.698;11.946;2023-04-15T08:53:05;9.17;;;5.33;;
13439;SDS011;6792;57.698;11.946;2023-04-15T08:55:35;9.00;;;6.17;;
13439;SDS011;6792;57.698;11.946;2023-04-15T08:58:06;9.67;;;5.77;;
13439;SDS011;6792;57.698;11.946;2023-04-15T09:00:37;11.33;;;5.87;;
13439;SDS011;6792;57.698;11.946;2023-04-15T09:03:07;8.10;;;5.37;;
13439;SDS011;6792;57.698;11.946;2023-04-15T09:05:37;7.93;;;5.43;;
13439;SDS011;6792;57.698;11.946;2023-04-15T09:08:07;8.73;;;5.40;;
13439;SDS011;6792;57.698;11.946;2023-04-15T09:10:36;8.13;;;5.73;;
13439;SDS011;6792;57.698;11.946;2023-04-15T09:13:06;7.80;;;5.33;;
13439;SDS011;6792;57.698;11.946;2023-04-15T09:15:35;7.60;;;5.40;;
13439;SDS011;6792;57.698;11.946;2023-04-15T09:18:09;13.50;;;5.83;;
13439;SDS011;6792;57.698;11.946;2023-04-15T09:20:40;8.10;;;5.63;;
13439;SDS011;6792;57.698;11.946;2023-04-15T09:23:12;10.53;;;5.20;;
13439;SDS011;6792;57.698;11.946;2023-04-15T09:25:42;7.83;;;5.33;;
13439;SDS011;6792;57.698;11.946;2023-04-15T09:28:23;8.70;;;5.63;;
13439;SDS011;6792;57.698;11.946;2023-04-15T09:30:55;8.07;;;5.27;;
13439;SDS011;6792;57.698;11.946;2023-04-15T09:33:25;8.17;;;5.67;;
13439;SDS011;6792;57.698;11.946;2023-04-15T09:35:59;12.63;;;5.83;;
13439;SDS011;6792;57.698;11.946;2023-04-15T09:38:30;8.97;;;5.80;;
13439;SDS011;6792;57.698;11.946;2023-04-15T09:40:59;6.60;;;5.17;;
13439;SDS011;6792;57.698;11.946;2023-04-15T09:43:37;10.13;;;6.07;;
13439;SDS011;6792;57.698;11.946;2023-04-15T09:46:07;9.53;;;5.50;;
13439;SDS011;6792;57.698;11.946;2023-04-15T09:48:36;14.67;;;6.17;;
13439;SDS011;6792;57.698;11.946;2023-04-15T09:51:06;12.90;;;6.60;;
13439;SDS011;6792;57.698;11.946;2023-04-15T09:53:36;11.17;;;5.93;;
13439;SDS011;6792;57.698;11.946;2023-04-15T09:56:06;11.13;;;5.77;;
13439;SDS011;6792;57.698;11.946;2023-04-15T09:58:36;9.47;;;5.77;;
13439;SDS011;6792;57.698;11.946;2023-04-15T10:01:07;8.87;;;5.67;;
13439;SDS011;6792;57.698;11.946;2023-04-15T10:03:37;8.67;;;5.63;;
13439;SDS011;6792;57.698;11.946;2023-04-15T10:06:07;7.43;;;5.60;;
13439;SDS011;6792;57.698;11.946;2023-04-15T10:08:37;10.60;;;6.50;;
13439;SDS011;6792;57.698;11.946;2023-04-15T10:11:07;10.13;;;6.30;;
13439;SDS011;6792;57.698;11.946;2023-04-15T10:13:36;9.03;;;6.00;;
13439;SDS011;6792;57.698;11.946;2023-04-15T10:16:09;10.07;;;5.17;;
13439;SDS011;6792;57.698;11.946;2023-04-15T10:18:41;7.50;;;5.30;;
13439;SDS011;6792;57.698;11.946;2023-04-15T10:21:13;8.53;;;5.80;;
13439;SDS011;6792;57.698;11.946;2023-04-15T10:23:44;8.98;;;6.00;;
13439;SDS011;6792;57.698;11.946;2023-04-15T10:26:14;8.13;;;5.87;;
13439;SDS011;6792;57.698;11.946;2023-04-15T10:28:47;9.05;;;5.60;;
13439;SDS011;6792;57.698;11.946;2023-04-15T10:31:16;8.33;;;5.55;;
13439;SDS011;6792;57.698;11.946;2023-04-15T10:33:46;8.05;;;5.60;;
13439;SDS011;6792;57.698;11.946;2023-04-15T10:36:16;8.08;;;5.83;;
13439;SDS011;6792;57.698;11.946;2023-04-15T10:38:47;12.85;;;5.97;;
13439;SDS011;6792;57.698;11.946;2023-04-15T10:41:17;12.85;;;5.95;;
13439;SDS011;6792;57.698;11.946;2023-04-15T10:43:51;8.45;;;6.00;;
13439;SDS011;6792;57.698;11.946;2023-04-15T10:46:23;11.17;;;6.20;;
13439;SDS011;6792;57.698;11.946;2023-04-15T10:48:58;10.18;;;5.47;;
13439;SDS011;6792;57.698;11.946;2023-04-15T10:51:32;12.18;;;5.78;;
13439;SDS011;6792;57.698;11.946;2023-04-15T10:54:03;8.55;;;5.33;;
13439;SDS011;6792;57.698;11.946;2023-04-15T10:56:35;10.68;;;6.00;;
13439;SDS011;6792;57.698;11.946;2023-04-15T10:59:05;10.28;;;6.30;;
13439;SDS011;6792;57.698;11.946;2023-04-15T11:01:49;10.45;;;6.05;;
13439;SDS011;6792;57.698;11.946;2023-04-15T11:07:37;9.80;;;5.60;;
13439;SDS011;6792;57.698;11.946;2023-04-15T11:13:27;7.95;;;4.90;;
13439;SDS011;6792;57.698;11.946;2023-04-15T11:15:58;10.75;;;5.35;;
13439;SDS011;6792;57.698;11.946;2023-04-15T11:18:32;8.43;;;5.30;;
13439;SDS011;6792;57.698;11.946;2023-04-15T11:21:03;10.38;;;5.85;;
13439;SDS011;6792;57.698;11.946;2023-04-15T11:23:34;9.60;;;5.40;;
13439;SDS011;6792;57.698;11.946;2023-04-15T11:26:05;12.23;;;5.72;;
13439;SDS011;6792;57.698;11.946;2023-04-15T11:28:38;10.58;;;5.47;;
13439;SDS011;6792;57.698;11.946;2023-04-15T11:31:12;9.48;;;5.50;;
13439;SDS011;6792;57.698;11.946;2023-04-15T11:33:46;7.67;;;6.10;;
13439;SDS011;6792;57.698;11.946;2023-04-15T11:36:23;9.20;;;6.10;;
13439;SDS011;6792;57.698;11.946;2023-04-15T11:38:53;10.20;;;5.58;;
13439;SDS011;6792;57.698;11.946;2023-04-15T11:41:24;13.50;;;5.77;;
13439;SDS011;6792;57.698;11.946;2023-04-15T11:43:53;8.43;;;5.90;;
13439;SDS011;6792;57.698;11.946;2023-04-15T11:46:28;7.47;;;5.45;;
13439;SDS011;6792;57.698;11.946;2023-04-15T11:48:58;8.93;;;4.95;;
13439;SDS011;6792;57.698;11.946;2023-04-15T11:51:27;7.03;;;5.47;;
13439;SDS011;6792;57.698;11.946;2023-04-15T11:54:00;7.83;;;4.95;;
13439;SDS011;6792;57.698;11.946;2023-04-15T11:56:32;8.25;;;5.08;;
13439;SDS011;6792;57.698;11.946;2023-04-15T11:59:01;9.68;;;5.12;;
13439;SDS011;6792;57.698;11.946;2023-04-15T12:01:31;7.17;;;5.15;;
13439;SDS011;6792;57.698;11.946;2023-04-15T12:04:01;7.40;;;4.47;;
13439;SDS011;6792;57.698;11.946;2023-04-15T12:06:32;6.25;;;5.15;;
13439;SDS011;6792;57.698;11.946;2023-04-15T12:09:09;6.12;;;5.45;;
13439;SDS011;6792;57.698;11.946;2023-04-15T12:11:40;8.15;;;5.08;;
13439;SDS011;6792;57.698;11.946;2023-04-15T12:14:12;6.37;;;5.75;;
13439;SDS011;6792;57.698;11.946;2023-04-15T12:16:51;8.80;;;5.10;;
13439;SDS011;6792;57.698;11.946;2023-04-15T12:19:25;7.15;;;5.40;;
13439;SDS011;6792;57.698;11.946;2023-04-15T12:21:57;7.72;;;5.03;;
13439;SDS011;6792;57.698;11.946;2023-04-15T12:24:28;7.28;;;5.15;;
13439;SDS011;6792;57.698;11.946;2023-04-15T12:27:01;9.35;;;5.75;;
13439;SDS011;6792;57.698;11.946;2023-04-15T12:29:32;5.53;;;4.72;;
13439;SDS011;6792;57.698;11.946;2023-04-15T12:32:04;5.30;;;4.80;;
13439;SDS011;6792;57.698;11.946;2023-04-15T12:34:35;9.25;;;4.65;;
13439;SDS011;6792;57.698;11.946;2023-04-15T12:37:05;8.50;;;5.62;;
13439;SDS011;6792;57.698;11.946;2023-04-15T12:39:37;9.55;;;5.33;;
13439;SDS011;6792;57.698;11.946;2023-04-15T12:42:08;5.95;;;5.17;;
13439;SDS011;6792;57.698;11.946;2023-04-15T12:44:38;5.95;;;4.72;;
13439;SDS011;6792;57.698;11.946;2023-04-15T12:47:08;9.95;;;4.87;;
13439;SDS011;6792;57.698;11.946;2023-04-15T12:49:40;8.30;;;4.70;;
13439;SDS011;6792;57.698;11.946;2023-04-15T12:52:10;8.30;;;5.10;;
13439;SDS011;6792;57.698;11.946;2023-04-15T12:54:39;8.38;;;4.50;;
13439;SDS011;6792;57.698;11.946;2023-04-15T12:57:08;6.03;;;4.50;;
13439;SDS011;6792;57.698;11.946;2023-04-15T12:59:37;6.05;;;4.55;;
13439;SDS011;6792;57.698;11.946;2023-04-15T13:02:06;8.18;;;4.40;;
13439;SDS011;6792;57.698;11.946;2023-04-15T13:04:36;7.97;;;4.78;;
13439;SDS011;6792;57.698;11.946;2023-04-15T13:07:05;7.95;;;5.47;;
13439;SDS011;6792;57.698;11.946;2023-04-15T13:09:34;7.92;;;6.03;;
13439;SDS011;6792;57.698;11.946;2023-04-15T13:12:05;8.33;;;4.30;;
13439;SDS011;6792;57.698;11.946;2023-04-15T13:14:34;8.15;;;4.20;;
13439;SDS011;6792;57.698;11.946;2023-04-15T13:17:04;6.25;;;4.20;;
13439;SDS011;6792;57.698;11.946;2023-04-15T13:19:34;7.05;;;4.50;;
13439;SDS011;6792;57.698;11.946;2023-04-15T13:22:05;9.18;;;3.95;;
13439;SDS011;6792;57.698;11.946;2023-04-15T13:24:34;4.08;;;3.75;;
13439;SDS011;6792;57.698;11.946;2023-04-15T13:27:04;7.30;;;4.05;;
13439;SDS011;6792;57.698;11.946;2023-04-15T13:29:33;5.97;;;4.08;;
13439;SDS011;6792;57.698;11.946;2023-04-15T13:32:03;6.15;;;4.08;;
13439;SDS011;6792;57.698;11.946;2023-04-15T13:34:33;6.47;;;4.80;;
13439;SDS011;6792;57.698;11.946;2023-04-15T13:37:05;9.20;;;4.58;;
13439;SDS011;6792;57.698;11.946;2023-04-15T13:39:35;5.72;;;3.52;;
13439;SDS011;6792;57.698;11.946;2023-04-15T13:42:04;5.55;;;3.92;;
13439;SDS011;6792;57.698;11.946;2023-04-15T13:44:34;6.03;;;3.65;;
13439;SDS011;6792;57.698;11.946;2023-04-15T13:47:03;5.47;;;3.42;;
13439;SDS011;6792;57.698;11.946;2023-04-15T13:49:33;6.37;;;4.00;;
13439;SDS011;6792;57.698;11.946;2023-04-15T13:52:02;4.08;;;3.60;;
13439;SDS011;6792;57.698;11.946;2023-04-15T13:54:31;8.35;;;4.15;;
13439;SDS011;6792;57.698;11.946;2023-04-15T13:57:00;5.67;;;3.65;;
13439;SDS011;6792;57.698;11.946;2023-04-15T13:59:30;7.00;;;3.47;;
13439;SDS011;6792;57.698;11.946;2023-04-15T14:02:00;4.87;;;3.65;;
13439;SDS011;6792;57.698;11.946;2023-04-15T14:04:30;9.65;;;3.50;;
13439;SDS011;6792;57.698;11.946;2023-04-15T14:06:59;5.42;;;3.75;;
13439;SDS011;6792;57.698;11.946;2023-04-15T14:09:28;4.50;;;3.42;;
13439;SDS011;6792;57.698;11.946;2023-04-15T14:11:58;5.97;;;3.40;;
13439;SDS011;6792;57.698;11.946;2023-04-15T14:14:27;4.12;;;3.70;;
13439;SDS011;6792;57.698;11.946;2023-04-15T14:16:57;3.42;;;2.80;;
13439;SDS011;6792;57.698;11.946;2023-04-15T14:19:26;3.85;;;3.10;;
13439;SDS011;6792;57.698;11.946;2023-04-15T14:21:56;4.03;;;2.85;;
13439;SDS011;6792;57.698;11.946;2023-04-15T14:24:26;4.08;;;3.65;;
13439;SDS011;6792;57.698;11.946;2023-04-15T14:26:55;5.55;;;3.20;;
13439;SDS011;6792;57.698;11.946;2023-04-15T14:29:25;7.33;;;3.15;;
13439;SDS011;6792;57.698;11.946;2023-04-15T14:31:54;3.55;;;3.08;;
13439;SDS011;6792;57.698;11.946;2023-04-15T14:34:24;6.62;;;3.30;;
13439;SDS011;6792;57.698;11.946;2023-04-15T14:36:53;8.15;;;3.47;;
13439;SDS011;6792;57.698;11.946;2023-04-15T14:39:23;4.85;;;3.17;;
13439;SDS011;6792;57.698;11.946;2023-04-15T14:41:52;6.67;;;3.52;;
13439;SDS011;6792;57.698;11.946;2023-04-15T14:44:22;4.78;;;3.65;;
13439;SDS011;6792;57.698;11.946;2023-04-15T14:46:51;5.65;;;3.80;;
13439;SDS011;6792;57.698;11.946;2023-04-15T14:49:21;7.55;;;3.45;;
13439;SDS011;6792;57.698;11.946;2023-04-15T14:51:50;5.10;;;3.37;;
13439;SDS011;6792;57.698;11.946;2023-04-15T14:54:19;3.42;;;3.12;;
13439;SDS011;6792;57.698;11.946;2023-04-15T14:56:48;7.60;;;3.10;;
13439;SDS011;6792;57.698;11.946;2023-04-15T14:59:18;7.55;;;3.00;;
13439;SDS011;6792;57.698;11.946;2023-04-15T15:01:47;3.87;;;2.85;;
13439;SDS011;6792;57.698;11.946;2023-04-15T15:04:16;4.78;;;3.33;;
13439;SDS011;6792;57.698;11.946;2023-04-15T15:06:46;4.75;;;2.65;;
13439;SDS011;6792;57.698;11.946;2023-04-15T15:09:17;4.45;;;2.45;;
13439;SDS011;6792;57.698;11.946;2023-04-15T15:11:48;3.92;;;3.12;;
13439;SDS011;6792;57.698;11.946;2023-04-15T15:14:17;4.12;;;2.65;;
13439;SDS011;6792;57.698;11.946;2023-04-15T15:16:49;4.67;;;2.83;;
13439;SDS011;6792;57.698;11.946;2023-04-15T15:19:18;5.10;;;2.80;;